createdAt,value
2022-08-08T00:00:53.449Z,16.85
2022-08-08T00:03:32.499Z,16.80
2022-08-08T00:06:35.329Z,16.75
2022-08-08T00:09:08.225Z,16.71
2022-08-08T00:11:46.538Z,16.69
2022-08-08T00:14:57.569Z,16.65
2022-08-08T00:18:01.831Z,16.62
2022-08-08T00:20:49.494Z,16.57
2022-08-08T00:23:42.836Z,16.54
2022-08-08T00:26:38.672Z,16.50
2022-08-08T00:29:15.111Z,16.49
2022-08-08T00:32:28.647Z,16.46
2022-08-08T00:35:00.615Z,16.41
2022-08-08T00:37:47.148Z,16.35
2022-08-08T00:41:07.834Z,16.31
2022-08-08T00:43:46.135Z,16.26
2022-08-08T00:47:14.121Z,16.20
2022-08-08T00:50:14.183Z,16.14
2022-08-08T00:52:54.004Z,16.10
2022-08-08T00:55:53.672Z,16.07
2022-08-08T00:58:55.309Z,16.03
2022-08-08T01:01:38.809Z,16.01
2022-08-08T01:04:17.704Z,15.96
2022-08-08T01:07:55.979Z,15.93
2022-08-08T01:10:39.951Z,15.89
2022-08-08T01:13:43.742Z,15.85
2022-08-08T01:16:50.054Z,15.81
2022-08-08T01:20:02.703Z,15.81
2022-08-08T01:22:48.597Z,15.72
2022-08-08T01:25:17.439Z,15.69
2022-08-08T01:28:02.632Z,15.66
2022-08-08T01:30:53.592Z,15.62
2022-08-08T01:33:43.162Z,15.57
2022-08-08T01:36:48.661Z,15.51
2022-08-08T01:39:24.277Z,15.48
2022-08-08T01:42:02.820Z,15.44
2022-08-08T01:44:54.806Z,15.39
2022-08-08T01:48:15.046Z,15.36
2022-08-08T01:50:26.710Z,15.36
2022-08-08T01:55:14.650Z,15.33
2022-08-08T01:56:47.742Z,15.30
2022-08-08T02:00:02.346Z,15.28
2022-08-08T02:02:41.492Z,15.25
2022-08-08T02:05:55.927Z,15.24
2022-08-08T02:08:52.078Z,15.21
2022-08-08T02:11:59.972Z,15.18
2022-08-08T02:14:55.859Z,15.15
2022-08-08T02:17:42.487Z,15.11
2022-08-08T02:21:03.258Z,15.06
2022-08-08T02:23:18.432Z,15.02
2022-08-08T02:26:10.233Z,15.01
2022-08-08T02:29:01.149Z,14.97
2022-08-08T02:32:05.480Z,14.93
2022-08-08T02:35:11.350Z,14.93
2022-08-08T02:38:25.256Z,14.86
2022-08-08T02:41:17.940Z,14.81
2022-08-08T02:44:38.506Z,14.79
2022-08-08T02:47:04.478Z,14.78
2022-08-08T02:49:52.729Z,14.76
2022-08-08T02:52:50.697Z,14.72
2022-08-08T02:55:23.691Z,14.71
2022-08-08T02:58:14.887Z,14.68
2022-08-08T03:01:03.625Z,14.66
2022-08-08T03:05:03.475Z,14.64
2022-08-08T03:07:22.885Z,14.60
2022-08-08T03:10:32.782Z,14.58
2022-08-08T03:15:54.225Z,14.55
2022-08-08T03:16:35.425Z,14.52
2022-08-08T03:19:26.615Z,14.48
2022-08-08T03:21:58.166Z,14.47
2022-08-08T03:24:25.695Z,14.44
2022-08-08T03:26:58.686Z,14.41
2022-08-08T03:29:55.017Z,14.38
2022-08-08T03:32:41.243Z,14.37
2022-08-08T03:35:09.803Z,14.35
2022-08-08T03:37:59.701Z,14.33
2022-08-08T03:40:29.364Z,14.33
2022-08-08T03:42:58.633Z,14.28
2022-08-08T03:46:05.133Z,14.26
2022-08-08T03:49:09.720Z,14.24
2022-08-08T03:51:16.940Z,14.22
2022-08-08T03:53:47.699Z,14.20
2022-08-08T03:56:31.281Z,14.18
2022-08-08T03:58:58.851Z,14.16
2022-08-08T04:02:31.621Z,14.15
2022-08-08T04:04:30.702Z,14.12
2022-08-08T04:07:01.233Z,14.12
2022-08-08T04:09:30.821Z,14.11
2022-08-08T04:12:15.927Z,14.11
2022-08-08T04:14:45.022Z,14.11
2022-08-08T04:17:15.451Z,14.11
2022-08-08T04:19:49.440Z,14.12
2022-08-08T04:22:18.405Z,14.11
2022-08-08T04:24:50.782Z,14.13
2022-08-08T04:27:42.838Z,14.18
2022-08-08T04:30:17.943Z,14.21
2022-08-08T04:32:47.998Z,14.22
2022-08-08T04:35:16.958Z,14.22
2022-08-08T04:37:43.464Z,14.21
2022-08-08T04:40:12.378Z,14.23
2022-08-08T04:42:46.905Z,14.22
2022-08-08T04:45:23.405Z,14.22
2022-08-08T04:47:52.334Z,14.21
2022-08-08T04:50:24.152Z,14.22
2022-08-08T04:53:01.186Z,14.22
2022-08-08T04:55:47.677Z,14.24
2022-08-08T04:58:19.715Z,14.25
2022-08-08T05:00:48.483Z,14.27
2022-08-08T05:04:06.477Z,14.28
2022-08-08T05:06:13.295Z,14.33
2022-08-08T05:08:41.822Z,14.35
2022-08-08T05:11:17.400Z,14.41
2022-08-08T05:13:57.901Z,14.46
2022-08-08T05:16:50.813Z,14.52
2022-08-08T05:20:11.494Z,14.60
2022-08-08T05:22:01.875Z,14.67
2022-08-08T05:24:28.429Z,14.75
2022-08-08T05:26:57.818Z,14.82
2022-08-08T05:29:27.040Z,14.86
2022-08-08T05:32:03.577Z,14.93
2022-08-08T05:34:41.216Z,15.00
2022-08-08T05:37:17.138Z,15.08
2022-08-08T05:39:54.475Z,15.17
2022-08-08T05:42:40.885Z,15.27
2022-08-08T05:45:10.317Z,15.48
2022-08-08T05:48:00.151Z,15.74
2022-08-08T05:50:33.575Z,16.01
2022-08-08T05:53:53.584Z,16.29
2022-08-08T05:56:10.544Z,16.55
2022-08-08T05:58:39.853Z,16.88
2022-08-08T06:01:55.953Z,17.36
2022-08-08T06:04:23.251Z,18.24
2022-08-08T06:06:56.513Z,19.13
2022-08-08T06:10:00.267Z,19.64
2022-08-08T06:12:31.058Z,19.52
2022-08-08T06:15:03.242Z,18.72
2022-08-08T06:17:51.079Z,17.97
2022-08-08T06:20:19.687Z,17.59
2022-08-08T06:22:49.372Z,17.48
2022-08-08T06:25:17.993Z,17.45
2022-08-08T06:27:51.307Z,17.41
2022-08-08T06:30:28.845Z,17.43
2022-08-08T06:32:57.191Z,17.45
2022-08-08T06:36:08.636Z,17.37
2022-08-08T06:38:18.747Z,17.32
2022-08-08T06:40:54.028Z,17.38
2022-08-08T06:43:28.433Z,17.50
2022-08-08T06:45:57.828Z,17.59
2022-08-08T06:48:26.783Z,17.58
2022-08-08T06:50:55.661Z,17.59
2022-08-08T06:53:22.775Z,17.63
2022-08-08T06:56:02.802Z,17.66
2022-08-08T06:58:33.339Z,17.78
2022-08-08T07:01:24.443Z,17.89
2022-08-08T07:03:52.701Z,17.96
2022-08-08T07:06:38.518Z,17.97
2022-08-08T07:09:15.248Z,18.01
2022-08-08T07:11:50.957Z,18.08
2022-08-08T07:14:26.745Z,18.21
2022-08-08T07:17:14.272Z,18.36
2022-08-08T07:19:48.470Z,18.45
2022-08-08T07:22:24.704Z,18.47
2022-08-08T07:24:57.447Z,18.56
2022-08-08T07:27:46.964Z,18.56
2022-08-08T07:30:21.308Z,18.66
2022-08-08T07:32:53.455Z,18.74
2022-08-08T07:35:21.527Z,18.86
2022-08-08T07:38:04.844Z,18.97
2022-08-08T07:40:37.461Z,18.92
2022-08-08T07:43:08.781Z,18.97
2022-08-08T07:46:04.886Z,18.97
2022-08-08T07:48:23.560Z,18.98
2022-08-08T07:50:52.301Z,19.07
2022-08-08T07:54:01.021Z,19.23
2022-08-08T07:56:36.910Z,19.32
2022-08-08T07:59:08.911Z,19.43
2022-08-08T08:02:36.488Z,19.54
2022-08-08T08:04:33.669Z,19.57
2022-08-08T08:07:08.777Z,19.67
2022-08-08T08:09:40.203Z,19.81
2022-08-08T08:12:10.052Z,19.86
2022-08-08T08:15:07.124Z,20.00
2022-08-08T08:17:47.780Z,20.14
2022-08-08T08:20:17.664Z,20.16
2022-08-08T08:22:45.005Z,20.28
2022-08-08T08:25:16.996Z,20.22
2022-08-08T08:27:46.533Z,20.25
2022-08-08T08:30:14.126Z,20.32
2022-08-08T08:32:49.392Z,20.42
2022-08-08T08:35:18.379Z,20.47
2022-08-08T08:38:14.444Z,20.46
2022-08-08T08:40:37.574Z,20.68
2022-08-08T08:43:10.192Z,20.79
2022-08-08T08:45:43.708Z,20.74
2022-08-08T08:48:10.814Z,20.65
2022-08-08T08:50:52.393Z,20.52
2022-08-08T08:53:28.263Z,20.46
2022-08-08T08:56:07.772Z,20.52
2022-08-08T08:58:38.050Z,20.35
2022-08-08T09:01:09.703Z,20.51
2022-08-08T09:03:46.878Z,20.79
2022-08-08T09:06:28.789Z,20.98
2022-08-08T09:09:03.064Z,21.22
2022-08-08T09:11:33.897Z,21.38
2022-08-08T09:14:04.231Z,21.58
2022-08-08T09:16:33.138Z,21.82
2022-08-08T09:18:59.774Z,22.08
2022-08-08T09:22:01.322Z,22.44
2022-08-08T09:24:14.926Z,22.56
2022-08-08T09:27:20.104Z,22.38
2022-08-08T09:30:06.601Z,22.15
2022-08-08T09:32:50.320Z,22.09
2022-08-08T09:35:31.918Z,22.10
2022-08-08T09:38:05.840Z,22.05
2022-08-08T09:40:46.559Z,21.94
2022-08-08T09:44:04.977Z,21.75
2022-08-08T09:46:30.649Z,21.59
2022-08-08T09:49:18.673Z,21.57
2022-08-08T09:52:06.375Z,21.50
2022-08-08T09:54:44.592Z,21.54
2022-08-08T09:57:16.226Z,21.61
2022-08-08T10:00:01.907Z,21.62
2022-08-08T10:02:45.047Z,21.61
2022-08-08T10:05:22.764Z,21.65
2022-08-08T10:07:51.812Z,21.69
2022-08-08T10:10:30.344Z,21.76
2022-08-08T10:13:14.266Z,21.92
2022-08-08T10:16:00.895Z,21.87
2022-08-08T10:18:32.886Z,21.92
2022-08-08T10:21:25.405Z,21.90
2022-08-08T10:23:58.670Z,21.93
2022-08-08T10:26:30.549Z,21.87
2022-08-08T10:29:06.491Z,21.90
2022-08-08T10:31:56.712Z,21.83
2022-08-08T10:34:28.649Z,21.89
2022-08-08T10:36:59.701Z,22.17
2022-08-08T10:39:43.484Z,22.39
2022-08-08T10:42:19.060Z,22.61
2022-08-08T10:44:49.391Z,22.92
2022-08-08T10:47:20.969Z,23.13
2022-08-08T10:50:02.642Z,23.23
2022-08-08T10:52:36.694Z,23.23
2022-08-08T10:55:39.818Z,23.10
2022-08-08T10:58:07.587Z,23.01
2022-08-08T11:00:40.745Z,22.99
2022-08-08T11:03:18.924Z,23.10
2022-08-08T11:06:06.511Z,23.37
2022-08-08T11:08:49.955Z,23.47
2022-08-08T11:11:32.612Z,23.80
2022-08-08T11:14:07.615Z,24.09
2022-08-08T11:16:46.934Z,24.12
2022-08-08T11:19:15.763Z,24.32
2022-08-08T11:21:55.748Z,24.41
2022-08-08T11:24:27.241Z,24.49
2022-08-08T11:27:01.443Z,24.21
2022-08-08T11:30:18.511Z,24.09
2022-08-08T11:32:47.586Z,23.97
2022-08-08T11:35:27.868Z,23.80
2022-08-08T11:38:38.535Z,23.61
2022-08-08T11:40:52.435Z,23.47
2022-08-08T11:43:21.712Z,23.48
2022-08-08T11:46:13.553Z,23.49
2022-08-08T11:48:39.617Z,23.53
2022-08-08T11:51:38.383Z,23.85
2022-08-08T11:53:58.943Z,24.30
2022-08-08T11:56:33.223Z,24.40
2022-08-08T11:59:11.803Z,24.15
2022-08-08T12:01:39.192Z,24.09
2022-08-08T12:04:08.120Z,24.00
2022-08-08T12:06:34.849Z,23.81
2022-08-08T12:09:09.246Z,23.80
2022-08-08T12:11:41.904Z,23.87
2022-08-08T12:14:10.977Z,24.04
2022-08-08T12:16:49.165Z,24.41
2022-08-08T12:19:15.959Z,24.75
2022-08-08T12:21:59.514Z,24.84
2022-08-08T12:24:51.332Z,24.90
2022-08-08T12:27:20.740Z,24.63
2022-08-08T12:29:59.988Z,24.67
2022-08-08T12:32:31.402Z,24.88
2022-08-08T12:35:04.152Z,24.90
2022-08-08T12:37:41.173Z,24.74
2022-08-08T12:40:22.652Z,24.67
2022-08-08T12:42:52.651Z,24.88
2022-08-08T12:45:54.042Z,25.20
2022-08-08T12:48:37.392Z,25.45
2022-08-08T12:51:04.850Z,25.49
2022-08-08T12:53:36.540Z,25.41
2022-08-08T12:56:19.281Z,25.20
2022-08-08T12:58:52.058Z,25.19
2022-08-08T13:01:29.562Z,24.95
2022-08-08T13:04:18.504Z,24.98
2022-08-08T13:07:11.779Z,25.26
2022-08-08T13:10:04.118Z,25.45
2022-08-08T13:12:36.066Z,25.63
2022-08-08T13:15:09.845Z,25.77
2022-08-08T13:18:08.748Z,25.76
2022-08-08T13:20:25.967Z,25.82
2022-08-08T13:23:29.977Z,25.91
2022-08-08T13:25:43.532Z,25.89
2022-08-08T13:28:10.128Z,25.85
2022-08-08T13:30:36.775Z,26.04
2022-08-08T13:33:03.982Z,25.97
2022-08-08T13:35:41.099Z,26.06
2022-08-08T13:38:13.076Z,26.05
2022-08-08T13:40:45.215Z,26.10
2022-08-08T13:43:16.132Z,26.10
2022-08-08T13:45:43.217Z,26.13
2022-08-08T13:48:15.721Z,26.08
2022-08-08T13:50:50.977Z,26.01
2022-08-08T13:53:36.301Z,26.18
2022-08-08T13:56:11.653Z,26.20
2022-08-08T13:58:57.699Z,26.27
2022-08-08T14:01:41.656Z,26.05
2022-08-08T14:04:21.943Z,25.79
2022-08-08T14:06:48.770Z,25.57
2022-08-08T14:09:25.152Z,25.49
2022-08-08T14:12:20.762Z,25.37
2022-08-08T14:14:55.703Z,25.21
2022-08-08T14:17:57.410Z,25.26
2022-08-08T14:20:56.460Z,25.36
2022-08-08T14:24:04.548Z,25.29
2022-08-08T14:26:33.371Z,25.48
2022-08-08T14:29:04.908Z,25.77
2022-08-08T14:32:08.933Z,25.77
2022-08-08T14:34:52.337Z,26.01
2022-08-08T14:38:33.514Z,26.30
2022-08-08T14:41:54.049Z,26.09
2022-08-08T14:44:35.532Z,25.72
2022-08-08T14:47:17.339Z,25.52
2022-08-08T14:50:22.522Z,25.50
2022-08-08T14:53:06.411Z,25.46
2022-08-08T14:56:07.252Z,25.33
2022-08-08T14:58:45.770Z,25.14
2022-08-08T15:01:37.463Z,25.04
2022-08-08T15:04:13.669Z,24.96
2022-08-08T15:06:45.889Z,24.83
2022-08-08T15:09:27.193Z,24.70
2022-08-08T15:14:40.276Z,24.39
2022-08-08T15:17:21.528Z,24.34
2022-08-08T15:19:52.858Z,24.54
2022-08-08T15:22:29.837Z,24.77
2022-08-08T15:25:29.160Z,24.89
2022-08-08T15:28:33.532Z,24.98
2022-08-08T15:31:21.701Z,25.18
2022-08-08T15:34:08.437Z,25.39
2022-08-08T15:39:38.207Z,25.46
2022-08-08T15:42:31.809Z,25.53
2022-08-08T15:45:06.346Z,25.63
2022-08-08T15:48:11.023Z,25.55
2022-08-08T15:51:02.047Z,25.62
2022-08-08T15:53:50.084Z,25.75
2022-08-08T15:56:25.974Z,25.92
2022-08-08T15:59:07.393Z,25.79
2022-08-08T16:02:00.010Z,25.92
2022-08-08T16:04:33.606Z,25.70
2022-08-08T16:07:05.062Z,25.65
2022-08-08T16:13:09.023Z,25.64
2022-08-08T16:13:14.924Z,25.63
2022-08-08T16:15:25.821Z,25.52
2022-08-08T16:18:11.766Z,25.61
2022-08-08T16:20:51.079Z,25.79
2022-08-08T16:23:49.083Z,25.86
2022-08-08T16:26:58.325Z,26.03
2022-08-08T16:29:37.703Z,26.01
2022-08-08T16:32:27.749Z,25.77
2022-08-08T16:35:18.845Z,25.84
2022-08-08T16:38:31.339Z,25.91
2022-08-08T16:41:11.010Z,25.88
2022-08-08T16:44:00.288Z,25.89
2022-08-08T16:46:45.920Z,25.85
2022-08-08T16:49:38.571Z,26.17
2022-08-08T16:55:00.060Z,26.33
2022-08-08T16:55:54.208Z,26.86
2022-08-08T16:58:17.800Z,27.10
2022-08-08T17:00:53.390Z,27.35
2022-08-08T17:03:25.239Z,27.63
2022-08-08T17:06:36.823Z,27.83
2022-08-08T17:09:45.203Z,27.80
2022-08-08T17:18:13.793Z,27.91
2022-08-08T17:23:58.586Z,27.56
2022-08-08T17:26:35.381Z,27.03
2022-08-08T17:29:04.041Z,26.46
2022-08-08T17:31:44.768Z,26.02
2022-08-08T17:34:53.144Z,25.55
2022-08-08T17:37:03.539Z,25.19
2022-08-08T17:40:03.953Z,25.00
2022-08-08T17:42:20.436Z,25.28
2022-08-08T17:44:50.558Z,25.43
2022-08-08T17:47:23.808Z,25.55
2022-08-08T17:50:01.280Z,25.77
2022-08-08T17:52:34.325Z,25.97
2022-08-08T17:55:05.232Z,25.94
2022-08-08T17:57:35.613Z,25.49
2022-08-08T18:00:05.028Z,24.99
2022-08-08T18:02:40.253Z,24.59
2022-08-08T18:05:14.738Z,24.39
2022-08-08T18:08:04.011Z,24.19
2022-08-08T18:10:31.757Z,24.15
2022-08-08T18:12:58.457Z,24.07
2022-08-08T18:15:25.112Z,23.93
2022-08-08T18:18:04.951Z,23.89
2022-08-08T18:20:55.021Z,23.83
2022-08-08T18:23:25.956Z,23.74
2022-08-08T18:25:53.069Z,23.68
2022-08-08T18:28:23.531Z,23.60
2022-08-08T18:30:52.326Z,23.48
2022-08-08T18:33:36.342Z,23.40
2022-08-08T18:36:04.213Z,23.30
2022-08-08T18:38:32.262Z,23.22
2022-08-08T18:41:00.891Z,23.12
2022-08-08T18:43:37.756Z,23.08
2022-08-08T18:46:55.276Z,23.01
2022-08-08T18:48:56.624Z,22.99
2022-08-08T18:51:48.449Z,22.92
2022-08-08T18:54:22.848Z,22.77
2022-08-08T18:56:56.958Z,22.71
2022-08-08T18:59:23.478Z,22.63
2022-08-08T19:02:26.610Z,22.57
2022-08-08T19:04:36.584Z,22.45
2022-08-08T19:07:03.672Z,22.40
2022-08-08T19:09:49.658Z,22.38
2022-08-08T19:12:18.285Z,22.35
2022-08-08T19:14:46.569Z,22.26
2022-08-08T19:17:13.353Z,22.21
2022-08-08T19:20:03.040Z,22.17
2022-08-08T19:22:33.173Z,22.15
2022-08-08T19:25:08.648Z,22.09
2022-08-08T19:27:56.003Z,22.01
2022-08-08T19:30:26.409Z,21.97
2022-08-08T19:32:53.502Z,21.93
2022-08-08T19:35:25.646Z,21.90
2022-08-08T19:38:06.482Z,21.82
2022-08-08T19:40:36.693Z,21.74
2022-08-08T19:43:03.397Z,21.68
2022-08-08T19:45:58.742Z,21.62
2022-08-08T19:48:28.712Z,21.57
2022-08-08T19:50:59.261Z,21.50
2022-08-08T19:53:53.125Z,21.46
2022-08-08T19:56:16.289Z,21.37
2022-08-08T19:58:51.781Z,21.28
2022-08-08T20:01:22.685Z,21.24
2022-08-08T20:04:02.193Z,21.21
2022-08-08T20:06:29.751Z,21.15
2022-08-08T20:08:56.766Z,21.12
2022-08-08T20:11:24.574Z,21.04
2022-08-08T20:14:13.340Z,21.00
2022-08-08T20:16:40.571Z,20.97
2022-08-08T20:19:07.886Z,20.92
2022-08-08T20:21:38.039Z,20.88
2022-08-08T20:24:06.150Z,20.83
2022-08-08T20:26:34.332Z,20.79
2022-08-08T20:29:03.087Z,20.73
2022-08-08T20:32:02.755Z,20.70
2022-08-08T20:34:29.166Z,20.64
2022-08-08T20:36:59.436Z,20.57
2022-08-08T20:39:33.696Z,20.51
2022-08-08T20:42:06.150Z,20.46
2022-08-08T20:44:35.484Z,20.43
2022-08-08T20:47:04.849Z,20.40
2022-08-08T20:49:46.829Z,20.37
2022-08-08T20:52:14.138Z,20.35
2022-08-08T20:54:42.179Z,20.31
2022-08-08T20:57:18.616Z,20.25
2022-08-08T20:59:46.899Z,20.23
2022-08-08T21:02:17.728Z,20.20
2022-08-08T21:04:52.107Z,20.19
2022-08-08T21:07:31.303Z,20.17
2022-08-08T21:10:12.522Z,20.09
2022-08-08T21:12:39.740Z,20.08
2022-08-08T21:15:16.260Z,20.07
2022-08-08T21:17:58.904Z,20.01
2022-08-08T21:20:34.015Z,19.99
2022-08-08T21:23:02.555Z,19.94
2022-08-08T21:25:36.128Z,19.92
2022-08-08T21:28:09.202Z,19.88
2022-08-08T21:30:42.677Z,19.84
2022-08-08T21:33:12.007Z,19.75
2022-08-08T21:36:18.311Z,19.70
2022-08-08T21:38:26.615Z,19.67
2022-08-08T21:40:55.434Z,19.60
2022-08-08T21:43:33.713Z,19.57
2022-08-08T21:48:07.694Z,19.54
2022-08-08T21:48:56.834Z,19.49
2022-08-08T21:54:17.926Z,19.44
2022-08-08T21:54:37.256Z,19.41
2022-08-08T21:57:06.737Z,19.38
2022-08-08T22:00:01.373Z,19.35
2022-08-08T22:02:23.325Z,19.34
2022-08-08T22:04:56.109Z,19.31
2022-08-08T22:07:39.817Z,19.28
2022-08-08T22:10:18.322Z,19.22
2022-08-08T22:13:16.596Z,19.17
2022-08-08T22:15:42.788Z,19.17
2022-08-08T22:18:26.378Z,19.11
2022-08-08T22:20:53.270Z,19.07
2022-08-08T22:23:20.150Z,19.04
2022-08-08T22:26:26.637Z,19.02
2022-08-08T22:29:13.589Z,19.00
2022-08-08T22:31:19.725Z,18.97
2022-08-08T22:34:12.890Z,18.95
2022-08-08T22:36:34.582Z,18.92
2022-08-08T22:39:01.126Z,18.84
2022-08-08T22:41:33.197Z,18.82
2022-08-08T22:44:01.903Z,18.77
2022-08-08T22:46:32.817Z,18.76
2022-08-08T22:48:59.276Z,18.74
2022-08-08T22:51:29.058Z,18.70
2022-08-08T22:54:32.962Z,18.67
2022-08-08T22:56:42.930Z,18.63
2022-08-08T22:59:14.093Z,18.57
2022-08-08T23:02:02.238Z,18.51
2022-08-08T23:04:32.274Z,18.45
2022-08-08T23:07:02.824Z,18.38
2022-08-08T23:09:30.518Z,18.31
2022-08-08T23:12:27.796Z,18.26
2022-08-08T23:14:56.008Z,18.23
2022-08-08T23:17:23.711Z,18.20
2022-08-08T23:19:56.895Z,18.17
2022-08-08T23:22:23.336Z,18.12
2022-08-08T23:24:50.704Z,18.08
2022-08-08T23:27:39.196Z,18.02
2022-08-08T23:30:06.113Z,17.99
2022-08-08T23:32:36.198Z,17.95
2022-08-08T23:35:12.643Z,17.91
2022-08-08T23:38:02.136Z,17.86
2022-08-08T23:40:30.392Z,17.82
2022-08-08T23:42:57.106Z,17.80
2022-08-08T23:49:07.770Z,17.73
2022-08-08T23:49:08.146Z,17.66
2022-08-08T23:50:57.698Z,17.64
2022-08-08T23:54:06.136Z,17.63
2022-08-08T23:56:12.007Z,17.61
2022-08-08T23:58:38.839Z,17.61
